createdAt,value
2023-04-19T00:00:50.668Z,67.00
2023-04-19T00:03:20.104Z,67.00
2023-04-19T00:05:48.102Z,67.00
2023-04-19T00:08:15.808Z,67.00
2023-04-19T00:10:43.485Z,67.00
2023-04-19T00:13:11.633Z,67.00
2023-04-19T00:15:39.634Z,67.00
2023-04-19T00:18:07.478Z,67.00
2023-04-19T00:20:36.584Z,67.00
2023-04-19T00:23:04.316Z,67.00
2023-04-19T00:25:34.413Z,67.00
2023-04-19T00:28:02.157Z,67.00
2023-04-19T00:30:29.988Z,67.00
2023-04-19T00:32:59.275Z,67.00
2023-04-19T00:35:27.028Z,67.00
2023-04-19T00:37:56.110Z,67.00
2023-04-19T00:40:24.009Z,67.00
2023-04-19T00:42:51.733Z,67.00
2023-04-19T00:45:19.544Z,67.00
2023-04-19T00:47:47.359Z,67.10
2023-04-19T00:50:15.214Z,67.00
2023-04-19T00:52:42.970Z,67.00
2023-04-19T00:55:12.094Z,67.10
2023-04-19T00:57:39.927Z,67.00
2023-04-19T01:00:09.730Z,67.00
2023-04-19T01:02:37.686Z,67.10
2023-04-19T01:05:06.237Z,67.00
2023-04-19T01:07:34.909Z,67.00
2023-04-19T01:10:02.701Z,67.00
2023-04-19T01:12:31.755Z,67.00
2023-04-19T01:14:59.468Z,67.00
2023-04-19T01:17:27.997Z,67.00
2023-04-19T01:20:00.690Z,67.00
2023-04-19T01:22:31.855Z,67.00
2023-04-19T01:24:59.696Z,67.10
2023-04-19T01:27:27.641Z,67.00
2023-04-19T01:29:55.346Z,67.00
2023-04-19T01:32:27.502Z,67.00
2023-04-19T01:34:57.106Z,67.00
2023-04-19T01:37:24.927Z,67.10
2023-04-19T01:39:53.973Z,67.00
2023-04-19T01:42:21.697Z,67.00
2023-04-19T01:44:49.425Z,67.00
2023-04-19T01:47:17.192Z,67.00
2023-04-19T01:49:44.945Z,67.10
2023-04-19T01:52:12.647Z,67.00
2023-04-19T01:54:40.441Z,67.00
2023-04-19T01:57:09.779Z,67.10
2023-04-19T01:59:37.524Z,67.10
2023-04-19T02:02:07.928Z,67.10
2023-04-19T02:04:35.953Z,67.10
2023-04-19T02:07:03.664Z,67.10
2023-04-19T02:09:31.361Z,67.00
2023-04-19T02:11:59.038Z,67.10
2023-04-19T02:14:28.087Z,67.10
2023-04-19T02:16:55.970Z,67.00
2023-04-19T02:19:23.896Z,67.10
2023-04-19T02:21:51.737Z,67.00
2023-04-19T02:24:19.460Z,67.10
2023-04-19T02:26:47.145Z,67.00
2023-04-19T02:29:16.765Z,67.00
2023-04-19T02:31:46.335Z,66.90
2023-04-19T02:34:14.396Z,67.10
2023-04-19T02:36:42.413Z,67.10
2023-04-19T02:39:10.414Z,67.00
2023-04-19T02:41:40.399Z,67.00
2023-04-19T02:44:08.512Z,67.00
2023-04-19T02:46:36.243Z,67.00
2023-04-19T02:49:05.499Z,67.00
2023-04-19T02:51:33.312Z,67.10
2023-04-19T02:54:01.077Z,67.00
2023-04-19T02:56:28.883Z,67.00
2023-04-19T02:58:56.972Z,67.00
2023-04-19T03:01:24.961Z,67.00
2023-04-19T03:03:53.165Z,67.10
2023-04-19T03:06:22.365Z,67.00
2023-04-19T03:08:50.198Z,67.00
2023-04-19T03:11:19.987Z,67.10
2023-04-19T03:13:48.066Z,67.00
2023-04-19T03:16:16.163Z,67.10
2023-04-19T03:18:47.254Z,67.00
2023-04-19T03:21:17.245Z,67.00
2023-04-19T03:23:54.574Z,67.00
2023-04-19T03:26:23.253Z,67.00
2023-04-19T03:28:54.217Z,67.00
2023-04-19T03:31:34.995Z,67.00
2023-04-19T03:34:02.827Z,67.00
2023-04-19T03:36:36.888Z,67.00
2023-04-19T03:39:06.200Z,67.00
2023-04-19T03:41:34.131Z,67.00
2023-04-19T03:44:22.130Z,67.00
2023-04-19T03:46:49.857Z,67.00
2023-04-19T03:49:22.276Z,67.00
2023-04-19T03:51:55.676Z,67.00
2023-04-19T03:54:24.707Z,67.00
2023-04-19T03:56:52.610Z,67.00
2023-04-19T03:59:20.348Z,67.10
2023-04-19T04:01:48.562Z,67.00
2023-04-19T04:04:16.761Z,67.00
2023-04-19T04:06:45.663Z,67.00
2023-04-19T04:09:16.197Z,67.00
2023-04-19T04:11:45.884Z,67.00
2023-04-19T04:14:14.023Z,67.00
2023-04-19T04:16:42.132Z,67.00
2023-04-19T04:19:10.430Z,67.00
2023-04-19T04:21:41.598Z,67.00
2023-04-19T04:24:09.901Z,67.00
2023-04-19T04:27:00.667Z,67.00
2023-04-19T04:29:33.322Z,67.00
2023-04-19T04:32:03.247Z,67.00
2023-04-19T04:34:39.332Z,66.90
2023-04-19T04:37:13.737Z,66.90
2023-04-19T04:39:42.449Z,66.90
2023-04-19T04:42:13.400Z,66.90
2023-04-19T04:44:41.438Z,66.90
2023-04-19T04:47:10.856Z,66.90
2023-04-19T04:49:43.962Z,66.90
2023-04-19T04:52:11.878Z,66.80
2023-04-19T04:54:49.942Z,66.80
2023-04-19T04:57:31.224Z,66.80
2023-04-19T05:00:00.320Z,66.80
2023-04-19T05:02:34.327Z,66.80
2023-04-19T05:05:03.204Z,66.80
2023-04-19T05:07:30.988Z,66.80
2023-04-19T05:10:00.369Z,66.70
2023-04-19T05:12:35.786Z,66.70
2023-04-19T05:15:03.723Z,66.90
2023-04-19T05:17:31.467Z,67.20
2023-04-19T05:19:59.814Z,67.50
2023-04-19T05:22:28.535Z,67.50
2023-04-19T05:24:56.785Z,67.60
2023-04-19T05:27:24.462Z,67.70
2023-04-19T05:29:53.861Z,67.90
2023-04-19T05:32:22.915Z,68.10
2023-04-19T05:34:55.458Z,68.40
2023-04-19T05:37:24.986Z,68.50
2023-04-19T05:39:52.896Z,68.50
2023-04-19T05:42:20.605Z,68.50
2023-04-19T05:44:48.366Z,68.60
2023-04-19T05:47:18.718Z,68.60
2023-04-19T05:50:02.559Z,68.60
2023-04-19T05:52:33.519Z,68.70
2023-04-19T05:55:02.450Z,68.60
2023-04-19T05:57:31.061Z,68.60
2023-04-19T06:02:44.336Z,68.40
2023-04-19T06:05:14.398Z,68.40
2023-04-19T06:07:47.304Z,68.30
2023-04-19T06:10:18.337Z,68.30
2023-04-19T06:12:46.147Z,68.20
2023-04-19T06:15:13.881Z,68.10
2023-04-19T06:17:43.381Z,68.10
2023-04-19T06:20:12.246Z,67.90
2023-04-19T06:22:43.462Z,67.80
2023-04-19T06:25:11.312Z,67.80
2023-04-19T06:27:39.004Z,67.80
2023-04-19T06:30:08.199Z,67.70
2023-04-19T06:32:36.207Z,67.60
2023-04-19T06:35:07.584Z,68.40
2023-04-19T06:37:35.436Z,67.60
2023-04-19T06:40:04.992Z,67.50
2023-04-19T06:42:32.709Z,67.50
2023-04-19T06:45:01.390Z,67.70
2023-04-19T06:47:30.668Z,67.70
2023-04-19T06:49:58.693Z,67.60
2023-04-19T06:52:27.736Z,67.60
2023-04-19T06:54:55.540Z,67.60
2023-04-19T06:57:23.225Z,67.60
2023-04-19T06:59:50.932Z,67.50
2023-04-19T07:02:18.728Z,67.50
2023-04-19T07:04:47.531Z,67.50
2023-04-19T07:07:15.593Z,67.50
2023-04-19T07:09:44.687Z,67.50
2023-04-19T07:12:12.519Z,67.40
2023-04-19T07:14:40.284Z,67.40
2023-04-19T07:17:08.000Z,67.40
2023-04-19T07:19:36.413Z,67.30
2023-04-19T07:22:06.120Z,67.40
2023-04-19T07:24:33.916Z,67.40
2023-04-19T07:27:02.923Z,67.30
2023-04-19T07:29:30.678Z,67.30
2023-04-19T07:31:59.901Z,67.30
2023-04-19T07:34:27.695Z,67.30
2023-04-19T07:36:55.387Z,67.30
2023-04-19T07:39:23.085Z,67.30
2023-04-19T07:41:50.795Z,67.30
2023-04-19T07:44:19.858Z,67.50
2023-04-19T07:46:47.599Z,67.30
2023-04-19T07:49:16.699Z,67.30
2023-04-19T07:51:44.431Z,67.40
2023-04-19T07:54:12.406Z,67.30
2023-04-19T07:56:40.127Z,67.40
2023-04-19T07:59:09.272Z,67.40
2023-04-19T08:01:38.857Z,67.40
2023-04-19T08:04:07.853Z,67.40
2023-04-19T08:06:37.761Z,67.40
2023-04-19T08:09:05.448Z,67.40
2023-04-19T08:11:33.349Z,67.40
2023-04-19T08:17:14.734Z,67.40
2023-04-19T08:19:20.698Z,67.40
2023-04-19T08:21:48.414Z,67.30
2023-04-19T08:24:16.328Z,67.30
2023-04-19T08:26:44.344Z,67.30
2023-04-19T08:29:12.034Z,67.20
2023-04-19T08:31:39.886Z,67.20
2023-04-19T08:34:07.631Z,67.20
2023-04-19T08:36:41.324Z,67.20
2023-04-19T08:39:29.255Z,67.30
2023-04-19T08:42:07.527Z,67.20
2023-04-19T08:44:45.018Z,67.50
2023-04-19T08:50:08.648Z,67.40
2023-04-19T08:52:54.196Z,67.40
2023-04-19T08:55:23.880Z,67.40
2023-04-19T08:57:51.720Z,67.40
2023-04-19T09:00:20.832Z,67.30
2023-04-19T09:02:49.655Z,67.30
2023-04-19T09:05:18.857Z,67.30
2023-04-19T09:07:49.323Z,67.30
2023-04-19T09:10:18.967Z,67.30
2023-04-19T09:13:02.097Z,67.30
2023-04-19T09:15:38.066Z,67.40
2023-04-19T09:18:07.774Z,67.30
2023-04-19T09:20:39.957Z,67.30
2023-04-19T09:23:12.590Z,67.40
2023-04-19T09:26:05.926Z,67.30
2023-04-19T09:28:29.073Z,67.40
2023-04-19T09:31:07.072Z,67.30
2023-04-19T09:33:45.101Z,67.30
2023-04-19T09:36:26.872Z,67.30
2023-04-19T09:38:56.051Z,67.30
2023-04-19T09:41:24.132Z,67.30
2023-04-19T09:44:08.790Z,67.30
2023-04-19T09:46:42.499Z,67.30
2023-04-19T09:49:36.911Z,67.40
2023-04-19T09:52:11.118Z,67.50
2023-04-19T09:54:40.321Z,67.40
2023-04-19T09:57:09.183Z,67.50
2023-04-19T09:59:37.008Z,67.70
2023-04-19T10:02:06.638Z,68.10
2023-04-19T10:04:57.118Z,68.70
2023-04-19T10:07:30.581Z,69.20
2023-04-19T10:10:16.001Z,69.60
2023-04-19T10:15:22.345Z,70.00
2023-04-19T10:17:50.146Z,69.90
2023-04-19T10:20:23.770Z,70.20
2023-04-19T10:22:52.102Z,70.30
2023-04-19T10:25:29.700Z,70.20
2023-04-19T10:27:58.429Z,70.00
2023-04-19T10:30:27.894Z,70.00
2023-04-19T10:32:57.802Z,69.70
2023-04-19T10:35:29.199Z,69.70
2023-04-19T10:38:08.245Z,69.60
2023-04-19T10:41:04.072Z,69.60
2023-04-19T10:43:32.931Z,69.50
2023-04-19T10:46:02.289Z,69.30
2023-04-19T10:48:43.717Z,69.00
2023-04-19T10:51:16.509Z,68.80
2023-04-19T10:53:49.161Z,68.50
2023-04-19T10:56:19.572Z,68.30
2023-04-19T10:59:21.801Z,68.10
2023-04-19T11:01:52.463Z,67.90
2023-04-19T11:04:22.730Z,67.80
2023-04-19T11:07:04.869Z,67.30
2023-04-19T11:09:34.634Z,67.20
2023-04-19T11:12:08.158Z,66.90
2023-04-19T11:14:37.461Z,66.70
2023-04-19T11:17:16.327Z,66.50
2023-04-19T11:19:45.585Z,66.20
2023-04-19T11:22:13.310Z,66.10
2023-04-19T11:24:46.934Z,65.80
2023-04-19T11:27:16.203Z,65.70
2023-04-19T11:29:44.004Z,65.50
2023-04-19T11:32:11.816Z,65.30
2023-04-19T11:34:40.112Z,65.10
2023-04-19T11:37:08.132Z,65.10
2023-04-19T11:39:45.358Z,64.90
2023-04-19T11:42:20.312Z,64.70
2023-04-19T11:44:52.737Z,64.60
2023-04-19T11:47:20.822Z,64.40
2023-04-19T11:49:48.553Z,64.20
2023-04-19T11:52:22.918Z,64.10
2023-04-19T11:54:51.656Z,63.90
2023-04-19T11:57:30.422Z,63.80
2023-04-19T12:00:11.752Z,63.50
2023-04-19T12:02:44.801Z,63.40
2023-04-19T12:05:14.550Z,63.20
2023-04-19T12:08:02.758Z,63.10
2023-04-19T12:10:30.749Z,63.00
2023-04-19T12:13:00.221Z,62.90
2023-04-19T12:15:42.809Z,62.80
2023-04-19T12:18:10.731Z,62.60
2023-04-19T12:20:39.951Z,62.50
2023-04-19T12:23:11.055Z,62.40
2023-04-19T12:25:38.802Z,62.40
2023-04-19T12:28:08.023Z,62.40
2023-04-19T12:30:36.950Z,62.40
2023-04-19T12:33:05.061Z,62.60
2023-04-19T12:35:32.758Z,62.60
2023-04-19T12:38:02.630Z,62.70
2023-04-19T12:40:31.406Z,62.80
2023-04-19T12:42:59.135Z,62.80
2023-04-19T12:45:28.619Z,62.80
2023-04-19T12:47:57.132Z,62.80
2023-04-19T12:50:25.127Z,62.90
2023-04-19T12:52:53.700Z,62.90
2023-04-19T12:55:21.869Z,62.70
2023-04-19T12:57:49.695Z,62.50
2023-04-19T13:00:18.119Z,62.40
2023-04-19T13:02:48.288Z,62.20
2023-04-19T13:05:16.351Z,62.20
2023-04-19T13:07:44.138Z,62.20
2023-04-19T13:10:12.377Z,62.30
2023-04-19T13:12:40.689Z,62.30
2023-04-19T13:15:09.912Z,62.40
2023-04-19T13:17:37.952Z,62.60
2023-04-19T13:20:09.394Z,62.50
2023-04-19T13:22:37.108Z,62.70
2023-04-19T13:25:05.219Z,62.80
2023-04-19T13:27:33.180Z,62.90
2023-04-19T13:30:00.909Z,62.90
2023-04-19T13:32:29.596Z,62.90
2023-04-19T13:34:57.322Z,63.00
2023-04-19T13:37:26.633Z,63.10
2023-04-19T13:40:03.963Z,63.20
2023-04-19T13:42:38.849Z,63.20
2023-04-19T13:45:07.642Z,63.20
2023-04-19T13:47:35.400Z,63.30
2023-04-19T13:50:03.159Z,63.30
2023-04-19T13:52:32.264Z,63.40
2023-04-19T13:54:59.993Z,63.40
2023-04-19T13:57:27.904Z,63.40
2023-04-19T13:59:55.630Z,63.40
2023-04-19T14:02:23.482Z,63.40
2023-04-19T14:04:51.399Z,63.50
2023-04-19T14:07:19.093Z,63.40
2023-04-19T14:09:48.387Z,63.40
2023-04-19T14:12:16.142Z,63.50
2023-04-19T14:14:43.824Z,63.50
2023-04-19T14:17:11.525Z,63.50
2023-04-19T14:19:39.309Z,64.30
2023-04-19T14:22:07.189Z,63.60
2023-04-19T14:24:34.902Z,63.60
2023-04-19T14:27:10.870Z,63.60
2023-04-19T14:29:39.871Z,63.70
2023-04-19T14:32:17.046Z,63.70
2023-04-19T14:34:52.292Z,63.70
2023-04-19T14:37:20.501Z,63.70
2023-04-19T14:39:48.305Z,63.80
2023-04-19T14:42:18.061Z,63.80
2023-04-19T14:44:47.271Z,63.90
2023-04-19T14:47:15.153Z,63.90
2023-04-19T14:49:42.831Z,63.90
2023-04-19T14:52:12.001Z,64.00
2023-04-19T14:54:39.814Z,64.00
2023-04-19T14:57:07.654Z,64.00
2023-04-19T14:59:36.735Z,63.90
2023-04-19T15:02:04.496Z,63.90
2023-04-19T15:04:37.421Z,63.90
2023-04-19T15:07:07.676Z,63.90
2023-04-19T15:09:35.437Z,63.80
2023-04-19T15:12:03.159Z,63.90
2023-04-19T15:14:30.875Z,63.80
2023-04-19T15:16:59.931Z,63.70
2023-04-19T15:19:29.617Z,63.70
2023-04-19T15:21:57.308Z,63.80
2023-04-19T15:24:25.148Z,63.70
2023-04-19T15:26:52.860Z,63.70
2023-04-19T15:29:20.568Z,63.60
2023-04-19T15:31:48.378Z,63.70
2023-04-19T15:34:17.935Z,63.60
2023-04-19T15:36:45.777Z,63.60
2023-04-19T15:39:13.585Z,63.50
2023-04-19T15:41:41.292Z,63.60
2023-04-19T15:44:09.021Z,63.50
2023-04-19T15:46:36.886Z,63.80
2023-04-19T15:49:07.378Z,63.50
2023-04-19T15:51:36.457Z,63.50
2023-04-19T15:54:05.793Z,63.50
2023-04-19T15:56:33.538Z,63.50
2023-04-19T15:59:01.378Z,63.50
2023-04-19T16:01:29.135Z,63.50
2023-04-19T16:03:56.991Z,63.50
2023-04-19T16:06:24.785Z,63.40
2023-04-19T16:08:53.804Z,63.30
2023-04-19T16:11:21.570Z,63.00
2023-04-19T16:13:49.410Z,62.70
2023-04-19T16:16:17.179Z,62.10
2023-04-19T16:18:44.955Z,61.50
2023-04-19T16:21:12.651Z,60.80
2023-04-19T16:23:40.375Z,60.20
2023-04-19T16:26:09.402Z,59.60
2023-04-19T16:28:37.078Z,59.00
2023-04-19T16:31:04.809Z,58.50
2023-04-19T16:33:32.514Z,58.00
2023-04-19T16:36:00.197Z,57.50
2023-04-19T16:38:28.145Z,57.10
2023-04-19T16:40:55.877Z,56.70
2023-04-19T16:43:25.019Z,56.40
2023-04-19T16:45:52.821Z,56.10
2023-04-19T16:48:20.570Z,55.80
2023-04-19T16:50:49.917Z,55.50
2023-04-19T16:53:17.657Z,55.50
2023-04-19T16:55:45.618Z,55.50
2023-04-19T16:58:13.310Z,55.60
2023-04-19T17:00:42.358Z,55.70
2023-04-19T17:03:10.203Z,55.90
2023-04-19T17:05:38.060Z,56.00
2023-04-19T17:08:06.261Z,56.10
2023-04-19T17:10:33.972Z,56.30
2023-04-19T17:13:02.230Z,56.50
2023-04-19T17:15:30.046Z,56.70
2023-04-19T17:17:59.227Z,56.70
2023-04-19T17:20:27.031Z,56.60
2023-04-19T17:22:54.735Z,56.20
2023-04-19T17:25:22.658Z,55.50
2023-04-19T17:27:50.623Z,54.80
2023-04-19T17:30:18.386Z,54.60
2023-04-19T17:32:46.156Z,54.20
2023-04-19T17:35:16.128Z,54.00
2023-04-19T17:37:44.414Z,53.70
2023-04-19T17:40:12.976Z,53.60
2023-04-19T17:42:40.717Z,53.50
2023-04-19T17:45:11.003Z,53.50
2023-04-19T17:47:39.258Z,53.50
2023-04-19T17:50:08.603Z,53.60
2023-04-19T17:52:38.009Z,53.60
2023-04-19T17:55:07.127Z,53.80
2023-04-19T17:57:35.097Z,54.00
2023-04-19T18:00:07.257Z,54.10
2023-04-19T18:02:37.148Z,54.20
2023-04-19T18:05:05.885Z,54.30
2023-04-19T18:07:33.664Z,54.50
2023-04-19T18:10:03.182Z,54.60
2023-04-19T18:12:30.957Z,54.70
2023-04-19T18:14:58.667Z,54.80
2023-04-19T18:17:26.534Z,55.00
2023-04-19T18:19:54.327Z,55.10
2023-04-19T18:22:22.014Z,55.30
2023-04-19T18:24:51.412Z,55.50
2023-04-19T18:27:20.488Z,55.40
2023-04-19T18:29:51.784Z,55.60
2023-04-19T18:32:21.597Z,55.70
2023-04-19T18:34:49.517Z,55.90
2023-04-19T18:37:18.370Z,55.90
2023-04-19T18:39:46.127Z,56.00
2023-04-19T18:42:13.893Z,56.20
2023-04-19T18:47:13.545Z,56.30
2023-04-19T18:49:42.518Z,56.40
2023-04-19T18:52:14.851Z,56.50
2023-04-19T18:54:42.561Z,56.70
2023-04-19T18:59:41.135Z,56.80
2023-04-19T19:02:10.949Z,56.90
2023-04-19T19:04:52.308Z,57.00
2023-04-19T19:07:35.650Z,57.10
2023-04-19T19:10:17.093Z,57.20
2023-04-19T19:12:46.976Z,57.30
2023-04-19T19:15:15.412Z,57.40
2023-04-19T19:17:49.207Z,57.50
2023-04-19T19:20:19.150Z,57.60
2023-04-19T19:22:47.070Z,57.60
2023-04-19T19:25:14.899Z,57.70
2023-04-19T19:27:58.318Z,57.70
2023-04-19T19:30:33.479Z,57.80
2023-04-19T19:33:04.580Z,57.90
2023-04-19T19:35:32.531Z,57.90
2023-04-19T19:38:00.336Z,58.00
2023-04-19T19:40:31.046Z,58.10
2023-04-19T19:43:00.004Z,58.20
2023-04-19T19:45:28.291Z,58.20
2023-04-19T19:47:58.806Z,58.30
2023-04-19T19:53:00.213Z,58.30
2023-04-19T19:55:28.356Z,58.40
2023-04-19T20:02:58.815Z,58.50
2023-04-19T20:05:28.847Z,58.60
2023-04-19T20:08:08.072Z,58.70
2023-04-19T20:10:37.169Z,58.70
2023-04-19T20:13:06.113Z,58.80
2023-04-19T20:15:34.066Z,58.90
2023-04-19T20:18:01.866Z,59.00
2023-04-19T20:20:31.036Z,59.00
2023-04-19T20:22:58.749Z,59.10
2023-04-19T20:25:26.758Z,59.20
2023-04-19T20:27:55.050Z,59.20
2023-04-19T20:30:22.885Z,59.30
2023-04-19T20:32:50.721Z,59.30
2023-04-19T20:35:18.889Z,60.00
2023-04-19T20:37:48.075Z,59.50
2023-04-19T20:40:16.495Z,59.50
2023-04-19T20:42:44.760Z,59.60
2023-04-19T20:45:12.769Z,59.60
2023-04-19T20:47:42.593Z,59.60
2023-04-19T20:50:11.061Z,59.70
2023-04-19T20:52:38.831Z,59.70
2023-04-19T20:55:08.874Z,59.70
2023-04-19T20:57:36.554Z,59.80
2023-04-19T21:00:07.951Z,59.90
2023-04-19T21:02:35.745Z,59.90
2023-04-19T21:05:03.529Z,59.90
2023-04-19T21:07:31.244Z,60.00
2023-04-19T21:09:58.985Z,60.00
2023-04-19T21:12:28.035Z,60.10
2023-04-19T21:14:55.744Z,60.10
2023-04-19T21:17:23.493Z,60.20
2023-04-19T21:19:51.208Z,60.20
2023-04-19T21:22:19.078Z,60.30
2023-04-19T21:24:46.917Z,60.40
2023-04-19T21:27:14.944Z,60.50
2023-04-19T21:29:44.214Z,60.30
2023-04-19T21:32:12.217Z,60.40
2023-04-19T21:34:40.090Z,60.40
2023-04-19T21:37:07.966Z,60.50
2023-04-19T21:39:35.835Z,61.30
2023-04-19T21:42:03.726Z,60.60
2023-04-19T21:44:31.663Z,60.60
2023-04-19T21:47:01.124Z,60.70
2023-04-19T21:49:28.977Z,60.70
2023-04-19T21:51:57.217Z,60.70
2023-04-19T21:54:33.578Z,60.80
2023-04-19T21:57:02.466Z,60.80
2023-04-19T21:59:30.788Z,60.90
2023-04-19T22:02:00.732Z,60.90
2023-04-19T22:04:30.616Z,60.90
2023-04-19T22:07:01.871Z,61.00
2023-04-19T22:09:30.125Z,61.00
2023-04-19T22:11:58.056Z,61.10
2023-04-19T22:14:25.988Z,61.10
2023-04-19T22:16:54.894Z,61.20
2023-04-19T22:19:24.715Z,61.10
2023-04-19T22:21:53.176Z,61.20
2023-04-19T22:24:21.716Z,61.20
2023-04-19T22:26:50.011Z,61.30
2023-04-19T22:29:18.011Z,61.30
2023-04-19T22:31:46.067Z,61.30
2023-04-19T22:34:14.040Z,61.30
2023-04-19T22:36:43.063Z,61.40
2023-04-19T22:39:10.825Z,61.30
2023-04-19T22:41:38.514Z,61.30
2023-04-19T22:44:06.515Z,61.40
2023-04-19T22:46:34.570Z,61.40
2023-04-19T22:49:02.322Z,61.50
2023-04-19T22:51:30.386Z,61.40
2023-04-19T22:53:59.418Z,61.50
2023-04-19T22:56:27.125Z,61.50
2023-04-19T22:58:54.797Z,61.50
2023-04-19T23:01:22.580Z,61.50
2023-04-19T23:03:50.484Z,61.60
2023-04-19T23:06:18.724Z,61.60
2023-04-19T23:08:46.479Z,61.60
2023-04-19T23:11:15.576Z,61.70
2023-04-19T23:13:43.860Z,61.70
2023-04-19T23:16:12.024Z,61.80
2023-04-19T23:18:40.176Z,61.80
2023-04-19T23:21:08.386Z,61.80
2023-04-19T23:23:36.167Z,61.80
2023-04-19T23:26:03.936Z,61.80
2023-04-19T23:28:33.026Z,61.80
2023-04-19T23:31:01.112Z,61.80
2023-04-19T23:33:28.840Z,61.90
2023-04-19T23:35:56.605Z,61.90
2023-04-19T23:38:24.257Z,61.90
2023-04-19T23:40:52.015Z,61.90
2023-04-19T23:43:19.768Z,61.90
2023-04-19T23:45:48.832Z,62.00
2023-04-19T23:48:17.351Z,62.00
2023-04-19T23:50:45.636Z,62.00
2023-04-19T23:53:13.481Z,62.00
2023-04-19T23:55:41.288Z,62.00
2023-04-19T23:58:08.968Z,62.10
